createdAt,value
2019-01-09T00:01:52.456Z,25.50
2019-01-09T00:04:23.023Z,24.90
2019-01-09T00:06:53.528Z,22.93
2019-01-09T00:09:24.061Z,25.90
2019-01-09T00:11:54.631Z,24.37
2019-01-09T00:14:36.404Z,25.07
2019-01-09T00:17:07.072Z,25.50
2019-01-09T00:19:37.592Z,23.70
2019-01-09T00:22:09.454Z,24.00
2019-01-09T00:24:39.976Z,23.00
2019-01-09T00:27:10.552Z,23.17
2019-01-09T00:29:41.050Z,25.70
2019-01-09T00:32:11.651Z,25.27
2019-01-09T00:34:42.179Z,25.40
2019-01-09T00:37:12.737Z,22.30
2019-01-09T00:39:43.262Z,24.37
2019-01-09T00:42:13.754Z,25.37
2019-01-09T00:44:44.334Z,24.30
2019-01-09T00:47:14.862Z,25.10
2019-01-09T00:49:45.384Z,24.97
2019-01-09T00:52:15.924Z,25.60
2019-01-09T00:54:46.566Z,26.20
2019-01-09T00:57:17.221Z,23.87
2019-01-09T00:59:47.739Z,25.60
2019-01-09T01:02:47.143Z,24.93
2019-01-09T01:05:34.226Z,26.80
2019-01-09T01:08:32.254Z,23.77
2019-01-09T01:11:29.807Z,26.00
2019-01-09T01:14:33.853Z,25.67
2019-01-09T01:17:34.611Z,25.80
2019-01-09T01:20:12.642Z,24.07
2019-01-09T01:23:28.677Z,25.10
2019-01-09T01:26:25.830Z,25.07
2019-01-09T01:29:09.731Z,22.63
2019-01-09T01:31:59.422Z,24.77
2019-01-09T01:34:55.468Z,23.57
2019-01-09T01:37:54.878Z,23.17
2019-01-09T01:40:44.983Z,25.40
2019-01-09T01:43:56.553Z,22.93
2019-01-09T01:46:49.888Z,26.93
2019-01-09T01:49:55.124Z,24.60
2019-01-09T01:52:41.930Z,25.00
2019-01-09T01:55:37.566Z,24.97
2019-01-09T01:58:31.131Z,23.20
2019-01-09T02:01:30.264Z,22.83
2019-01-09T02:04:25.103Z,25.53
2019-01-09T02:07:12.422Z,25.20
2019-01-09T02:10:10.245Z,24.83
2019-01-09T02:13:12.432Z,26.13
2019-01-09T02:16:12.051Z,23.47
2019-01-09T02:19:05.113Z,26.30
2019-01-09T02:21:42.945Z,24.17
2019-01-09T02:24:21.090Z,25.10
2019-01-09T02:27:08.987Z,25.27
2019-01-09T02:30:12.470Z,24.40
2019-01-09T02:32:42.988Z,26.47
2019-01-09T02:35:13.470Z,25.57
2019-01-09T02:37:43.999Z,24.57
2019-01-09T02:40:14.529Z,24.47
2019-01-09T02:42:45.056Z,23.77
2019-01-09T02:45:15.556Z,26.43
2019-01-09T02:47:46.068Z,25.97
2019-01-09T02:50:16.567Z,24.27
2019-01-09T02:52:47.083Z,25.20
2019-01-09T02:55:17.563Z,24.57
2019-01-09T02:57:56.673Z,24.80
2019-01-09T03:00:20.337Z,23.97
2019-01-09T03:02:50.821Z,27.23
2019-01-09T03:05:21.351Z,24.47
2019-01-09T03:07:51.842Z,26.30
2019-01-09T03:10:22.370Z,24.63
2019-01-09T03:12:52.942Z,24.53
2019-01-09T03:15:25.519Z,25.00
2019-01-09T03:17:56.073Z,25.17
2019-01-09T03:20:26.634Z,24.90
2019-01-09T03:22:57.150Z,26.03
2019-01-09T03:25:27.736Z,27.40
2019-01-09T03:27:58.227Z,24.67
2019-01-09T03:30:28.823Z,27.33
2019-01-09T03:32:59.326Z,26.37
2019-01-09T03:35:29.980Z,25.63
2019-01-09T03:38:00.488Z,24.77
2019-01-09T03:40:31.073Z,24.97
2019-01-09T03:43:01.608Z,25.70
2019-01-09T03:45:32.114Z,25.50
2019-01-09T03:48:02.627Z,25.30
2019-01-09T03:50:33.133Z,25.33
2019-01-09T03:53:03.651Z,28.13
2019-01-09T03:55:34.131Z,27.30
2019-01-09T03:58:04.659Z,23.90
2019-01-09T04:00:35.137Z,27.00
2019-01-09T04:03:05.662Z,26.40
2019-01-09T04:05:36.142Z,26.93
2019-01-09T04:08:06.668Z,24.87
2019-01-09T04:10:37.155Z,24.37
2019-01-09T04:13:07.676Z,25.20
2019-01-09T04:15:38.247Z,25.30
2019-01-09T04:18:08.847Z,26.63
2019-01-09T04:20:39.342Z,24.27
2019-01-09T04:23:09.864Z,29.27
2019-01-09T04:25:40.353Z,28.93
2019-01-09T04:28:10.882Z,26.57
2019-01-09T04:30:41.371Z,30.90
2019-01-09T04:33:11.896Z,29.03
2019-01-09T04:35:42.408Z,27.90
2019-01-09T04:38:12.913Z,27.10
2019-01-09T04:40:43.429Z,26.53
2019-01-09T04:43:13.970Z,24.40
2019-01-09T04:45:44.441Z,23.93
2019-01-09T04:48:14.974Z,24.80
2019-01-09T04:50:45.477Z,23.97
2019-01-09T04:53:16.009Z,27.33
2019-01-09T04:55:46.515Z,24.40
2019-01-09T04:58:17.038Z,27.00
2019-01-09T05:00:47.530Z,26.87
2019-01-09T05:03:18.060Z,24.77
2019-01-09T05:05:48.540Z,23.67
2019-01-09T05:08:19.075Z,24.10
2019-01-09T05:10:49.566Z,24.10
2019-01-09T05:13:20.092Z,23.80
2019-01-09T05:15:50.580Z,24.70
2019-01-09T05:18:21.120Z,25.97
2019-01-09T05:20:51.613Z,24.87
2019-01-09T05:23:22.142Z,24.67
2019-01-09T05:25:52.635Z,23.27
2019-01-09T05:28:23.153Z,25.03
2019-01-09T05:30:53.676Z,25.00
2019-01-09T05:33:24.170Z,24.37
2019-01-09T05:35:54.684Z,25.37
2019-01-09T05:38:25.221Z,22.90
2019-01-09T05:40:55.705Z,36.23
2019-01-09T05:43:26.231Z,61.03
2019-01-09T05:45:56.721Z,61.37
2019-01-09T05:48:27.255Z,75.27
2019-01-09T05:50:57.745Z,48.27
2019-01-09T05:53:28.293Z,28.03
2019-01-09T05:55:58.798Z,27.97
2019-01-09T05:58:29.320Z,25.90
2019-01-09T06:00:59.913Z,26.73
2019-01-09T06:03:30.418Z,26.40
2019-01-09T06:06:00.938Z,26.33
2019-01-09T06:08:31.457Z,24.57
2019-01-09T06:11:01.982Z,27.57
2019-01-09T06:13:32.499Z,25.30
2019-01-09T06:16:03.020Z,26.23
2019-01-09T06:18:33.547Z,25.83
2019-01-09T06:21:04.346Z,29.80
2019-01-09T06:23:35.543Z,26.40
2019-01-09T06:26:06.029Z,36.10
2019-01-09T06:28:36.545Z,39.20
2019-01-09T06:31:07.057Z,31.73
2019-01-09T06:33:37.594Z,26.00
2019-01-09T06:36:08.155Z,27.67
2019-01-09T06:38:38.679Z,28.97
2019-01-09T06:41:09.199Z,31.00
2019-01-09T06:43:40.359Z,29.27
2019-01-09T06:46:10.877Z,27.83
2019-01-09T06:48:41.354Z,27.90
2019-01-09T06:51:11.952Z,29.17
2019-01-09T06:53:42.490Z,29.63
2019-01-09T06:56:13.107Z,30.50
2019-01-09T06:58:43.711Z,29.37
2019-01-09T07:01:14.251Z,29.40
2019-01-09T07:03:44.761Z,28.60
2019-01-09T07:06:16.525Z,28.80
2019-01-09T07:08:47.031Z,31.50
2019-01-09T07:11:17.515Z,29.63
2019-01-09T07:13:48.037Z,29.50
2019-01-09T07:16:18.901Z,30.83
2019-01-09T07:18:49.409Z,31.20
2019-01-09T07:21:19.902Z,28.00
2019-01-09T07:23:50.431Z,29.50
2019-01-09T07:26:20.915Z,32.67
2019-01-09T07:28:51.446Z,31.37
2019-01-09T07:31:21.953Z,33.10
2019-01-09T07:33:52.550Z,31.00
2019-01-09T07:36:23.062Z,31.10
2019-01-09T07:38:53.561Z,30.30
2019-01-09T07:41:24.099Z,34.03
2019-01-09T07:43:54.569Z,31.90
2019-01-09T07:46:25.108Z,30.33
2019-01-09T07:49:14.933Z,29.07
2019-01-09T07:51:45.457Z,31.43
2019-01-09T07:54:15.977Z,62.87
2019-01-09T07:56:46.511Z,51.70
2019-01-09T07:59:17.044Z,36.47
2019-01-09T08:01:47.570Z,35.97
2019-01-09T08:04:18.076Z,39.20
2019-01-09T08:06:48.590Z,35.63
2019-01-09T08:09:19.074Z,36.40
2019-01-09T08:11:49.595Z,38.87
2019-01-09T08:14:20.269Z,38.40
2019-01-09T08:16:50.784Z,39.53
2019-01-09T08:19:21.290Z,39.00
2019-01-09T08:21:51.786Z,47.17
2019-01-09T08:24:22.391Z,56.80
2019-01-09T08:26:52.881Z,45.20
2019-01-09T08:29:23.429Z,39.90
2019-01-09T08:31:53.921Z,35.47
2019-01-09T08:34:24.434Z,35.00
2019-01-09T08:36:54.974Z,37.50
2019-01-09T08:39:25.465Z,36.27
2019-01-09T08:41:57.351Z,35.27
2019-01-09T08:44:29.549Z,35.73
2019-01-09T08:47:00.034Z,37.63
2019-01-09T08:49:31.081Z,34.30
2019-01-09T08:52:01.575Z,35.47
2019-01-09T08:54:32.877Z,35.67
2019-01-09T08:57:03.365Z,34.27
2019-01-09T08:59:33.875Z,35.80
2019-01-09T09:02:06.240Z,33.30
2019-01-09T09:04:36.760Z,33.50
2019-01-09T09:07:07.889Z,33.70
2019-01-09T09:09:38.537Z,31.70
2019-01-09T09:12:09.131Z,34.17
2019-01-09T09:14:39.678Z,34.33
2019-01-09T09:17:10.190Z,38.23
2019-01-09T09:19:40.719Z,32.80
2019-01-09T09:22:11.199Z,35.27
2019-01-09T09:24:41.773Z,33.83
2019-01-09T09:27:12.354Z,35.70
2019-01-09T09:29:42.844Z,34.80
2019-01-09T09:32:13.428Z,40.23
2019-01-09T09:34:44.018Z,38.43
2019-01-09T09:37:14.541Z,33.97
2019-01-09T09:39:46.102Z,36.07
2019-01-09T09:42:16.585Z,33.83
2019-01-09T09:44:47.099Z,36.40
2019-01-09T09:47:17.582Z,35.50
2019-01-09T09:49:48.089Z,38.00
2019-01-09T09:52:18.573Z,36.67
2019-01-09T09:54:49.090Z,36.37
2019-01-09T09:57:19.602Z,36.20
2019-01-09T09:59:50.092Z,36.57
2019-01-09T10:02:20.607Z,36.97
2019-01-09T10:04:51.093Z,39.30
2019-01-09T10:07:21.609Z,37.57
2019-01-09T10:09:52.108Z,35.57
2019-01-09T10:12:22.632Z,34.67
2019-01-09T10:14:53.121Z,54.47
2019-01-09T10:17:23.706Z,60.70
2019-01-09T10:19:54.205Z,35.00
2019-01-09T10:22:24.709Z,34.57
2019-01-09T10:24:55.226Z,34.87
2019-01-09T10:27:25.715Z,33.90
2019-01-09T10:29:56.246Z,36.97
2019-01-09T10:32:26.731Z,35.37
2019-01-09T10:34:57.260Z,36.03
2019-01-09T10:37:27.768Z,34.37
2019-01-09T10:39:58.255Z,34.80
2019-01-09T10:42:28.741Z,37.23
2019-01-09T10:45:00.820Z,39.40
2019-01-09T10:47:31.289Z,37.87
2019-01-09T10:50:01.981Z,40.93
2019-01-09T10:52:32.487Z,40.27
2019-01-09T10:55:03.061Z,63.97
2019-01-09T10:57:33.534Z,53.77
2019-01-09T11:00:07.709Z,73.17
2019-01-09T11:02:38.181Z,60.43
2019-01-09T11:05:11.506Z,49.60
2019-01-09T11:07:42.014Z,41.30
2019-01-09T11:10:16.788Z,39.67
2019-01-09T11:12:48.242Z,37.77
2019-01-09T11:15:18.953Z,40.07
2019-01-09T11:17:49.999Z,40.90
2019-01-09T11:20:22.139Z,40.23
2019-01-09T11:22:52.672Z,36.17
2019-01-09T11:25:26.331Z,38.27
2019-01-09T11:27:56.890Z,39.03
2019-01-09T11:30:28.112Z,38.10
2019-01-09T11:32:58.587Z,38.67
2019-01-09T11:35:31.781Z,38.57
2019-01-09T11:38:08.881Z,37.53
2019-01-09T11:40:40.742Z,37.80
2019-01-09T11:43:13.003Z,37.27
2019-01-09T11:45:43.470Z,39.30
2019-01-09T11:48:14.414Z,38.50
2019-01-09T11:50:49.385Z,37.17
2019-01-09T11:53:24.834Z,36.37
2019-01-09T11:55:55.723Z,38.20
2019-01-09T11:58:26.251Z,38.67
2019-01-09T12:00:56.720Z,107.87
2019-01-09T12:03:27.303Z,46.67
2019-01-09T12:05:57.893Z,38.73
2019-01-09T12:08:28.366Z,33.70
2019-01-09T12:11:00.632Z,32.10
2019-01-09T12:13:31.289Z,30.63
2019-01-09T12:16:07.926Z,30.20
2019-01-09T12:18:33.993Z,31.10
2019-01-09T12:21:04.533Z,30.60
2019-01-09T12:23:35.051Z,35.67
2019-01-09T12:26:05.982Z,28.47
2019-01-09T12:28:36.596Z,31.07
2019-01-09T12:31:07.097Z,29.50
2019-01-09T12:33:37.591Z,29.47
2019-01-09T12:36:11.058Z,32.90
2019-01-09T12:38:45.102Z,32.63
2019-01-09T12:41:17.367Z,30.77
2019-01-09T12:43:47.849Z,32.90
2019-01-09T12:46:18.377Z,32.90
2019-01-09T12:48:49.983Z,35.70
2019-01-09T12:51:20.537Z,35.77
2019-01-09T12:53:51.203Z,37.70
2019-01-09T12:56:21.717Z,38.73
2019-01-09T12:58:55.391Z,46.43
2019-01-09T13:01:25.959Z,37.60
2019-01-09T13:03:56.481Z,34.27
2019-01-09T13:06:26.954Z,34.90
2019-01-09T13:08:57.473Z,37.50
2019-01-09T13:11:27.945Z,36.30
2019-01-09T13:13:58.454Z,35.90
2019-01-09T13:16:28.916Z,35.90
2019-01-09T13:18:59.439Z,34.43
2019-01-09T13:21:30.592Z,35.53
2019-01-09T13:26:50.514Z,33.83
2019-01-09T13:29:21.272Z,35.70
2019-01-09T13:31:51.756Z,34.00
2019-01-09T13:34:22.383Z,32.90
2019-01-09T13:36:52.896Z,32.13
2019-01-09T13:39:30.707Z,33.60
2019-01-09T13:41:56.396Z,31.50
2019-01-09T13:44:31.645Z,31.40
2019-01-09T13:47:03.917Z,32.03
2019-01-09T13:49:36.104Z,30.00
2019-01-09T13:52:09.265Z,30.27
2019-01-09T13:54:52.240Z,32.30
2019-01-09T13:57:24.147Z,30.77
2019-01-09T14:00:01.113Z,28.67
2019-01-09T14:02:31.639Z,29.77
2019-01-09T14:05:03.788Z,30.00
2019-01-09T14:07:35.654Z,27.63
2019-01-09T14:10:13.944Z,26.67
2019-01-09T14:12:44.497Z,27.17
2019-01-09T14:15:18.511Z,27.73
2019-01-09T14:17:53.123Z,27.90
2019-01-09T14:20:26.562Z,29.30
2019-01-09T14:22:57.110Z,29.73
2019-01-09T14:25:27.898Z,30.37
2019-01-09T14:27:58.437Z,29.27
2019-01-09T14:30:31.054Z,29.37
2019-01-09T14:33:01.304Z,38.30
2019-01-09T14:35:33.422Z,55.27
2019-01-09T14:38:04.494Z,33.50
2019-01-09T14:40:34.969Z,29.17
2019-01-09T14:43:05.631Z,31.10
2019-01-09T14:45:36.120Z,29.83
2019-01-09T14:48:06.647Z,31.87
2019-01-09T14:50:37.125Z,33.67
2019-01-09T14:53:07.667Z,30.00
2019-01-09T14:55:38.161Z,31.30
2019-01-09T14:58:08.690Z,34.00
2019-01-09T15:00:39.336Z,34.30
2019-01-09T15:03:09.813Z,33.63
2019-01-09T15:05:40.466Z,33.37
2019-01-09T15:08:10.921Z,34.23
2019-01-09T15:10:41.559Z,33.80
2019-01-09T15:13:12.082Z,33.33
2019-01-09T15:15:42.561Z,35.10
2019-01-09T15:18:13.076Z,32.47
2019-01-09T15:20:43.581Z,31.30
2019-01-09T15:23:14.095Z,31.30
2019-01-09T15:25:44.757Z,32.10
2019-01-09T15:28:15.244Z,31.40
2019-01-09T15:30:45.766Z,32.97
2019-01-09T15:33:16.298Z,36.00
2019-01-09T15:35:48.916Z,47.73
2019-01-09T15:38:20.063Z,39.97
2019-01-09T15:40:50.687Z,39.00
2019-01-09T15:43:21.278Z,36.10
2019-01-09T15:45:51.955Z,36.57
2019-01-09T15:48:22.424Z,34.60
2019-01-09T15:50:52.930Z,32.47
2019-01-09T15:53:26.364Z,36.10
2019-01-09T15:55:57.692Z,33.93
2019-01-09T15:58:29.316Z,35.03
2019-01-09T16:00:59.800Z,32.07
2019-01-09T16:03:30.395Z,34.50
2019-01-09T16:06:00.881Z,34.13
2019-01-09T16:08:31.394Z,34.73
2019-01-09T16:11:01.876Z,34.73
2019-01-09T16:13:32.388Z,30.20
2019-01-09T16:16:02.970Z,32.83
2019-01-09T16:18:33.488Z,32.00
2019-01-09T16:21:04.140Z,31.40
2019-01-09T16:23:34.698Z,31.30
2019-01-09T16:26:06.054Z,33.47
2019-01-09T16:28:36.554Z,31.10
2019-01-09T16:31:14.566Z,34.03
2019-01-09T16:33:45.039Z,38.13
2019-01-09T16:36:15.582Z,38.10
2019-01-09T16:38:46.128Z,35.57
2019-01-09T16:41:16.637Z,39.57
2019-01-09T16:43:47.131Z,43.80
2019-01-09T16:46:17.816Z,45.20
2019-01-09T16:48:48.403Z,45.77
2019-01-09T16:51:18.951Z,45.30
2019-01-09T16:53:49.475Z,45.63
2019-01-09T16:56:19.956Z,47.00
2019-01-09T16:58:50.758Z,47.50
2019-01-09T17:01:21.246Z,44.40
2019-01-09T17:03:51.756Z,49.23
2019-01-09T17:06:22.239Z,48.87
2019-01-09T17:08:52.777Z,48.63
2019-01-09T17:11:23.299Z,49.70
2019-01-09T17:13:53.827Z,53.27
2019-01-09T17:16:24.371Z,51.20
2019-01-09T17:18:54.863Z,48.33
2019-01-09T17:21:25.840Z,50.97
2019-01-09T17:23:56.388Z,50.17
2019-01-09T17:26:26.865Z,54.67
2019-01-09T17:28:57.396Z,55.13
2019-01-09T17:31:27.876Z,54.30
2019-01-09T17:33:58.411Z,58.10
2019-01-09T17:36:28.948Z,52.87
2019-01-09T17:38:59.429Z,60.10
2019-01-09T17:41:29.981Z,64.30
2019-01-09T17:44:00.780Z,66.13
2019-01-09T17:46:31.314Z,61.43
2019-01-09T17:49:03.763Z,57.33
2019-01-09T17:51:34.275Z,55.13
2019-01-09T17:54:06.153Z,55.23
2019-01-09T17:56:36.694Z,58.30
2019-01-09T17:59:07.192Z,57.97
2019-01-09T18:01:37.744Z,60.33
2019-01-09T18:04:08.610Z,59.77
2019-01-09T18:06:39.154Z,62.37
2019-01-09T18:09:10.109Z,62.13
2019-01-09T18:11:40.723Z,60.23
2019-01-09T18:14:11.359Z,65.03
2019-01-09T18:16:42.509Z,56.80
2019-01-09T18:19:13.046Z,56.70
2019-01-09T18:21:43.537Z,105.37
2019-01-09T18:24:14.086Z,89.60
2019-01-09T18:26:44.577Z,90.70
2019-01-09T18:29:15.110Z,73.30
2019-01-09T18:31:53.069Z,75.60
2019-01-09T18:34:24.191Z,62.20
2019-01-09T18:37:05.003Z,56.70
2019-01-09T18:39:56.768Z,51.60
2019-01-09T18:42:43.220Z,52.30
2019-01-09T18:45:24.331Z,52.30
2019-01-09T18:48:37.247Z,51.90
2019-01-09T18:51:41.155Z,48.17
2019-01-09T18:54:11.642Z,51.77
2019-01-09T18:56:42.157Z,48.10
2019-01-09T18:59:13.025Z,50.90
2019-01-09T19:01:43.554Z,52.70
2019-01-09T19:04:14.045Z,49.17
2019-01-09T19:06:44.653Z,48.43
2019-01-09T19:09:15.724Z,52.30
2019-01-09T19:11:50.656Z,52.37
2019-01-09T19:14:18.443Z,51.07
2019-01-09T19:16:48.953Z,51.07
2019-01-09T19:19:19.480Z,51.93
2019-01-09T19:21:50.097Z,48.77
2019-01-09T19:24:20.651Z,50.67
2019-01-09T19:26:51.569Z,51.13
2019-01-09T19:29:22.167Z,46.40
2019-01-09T19:31:53.098Z,48.50
2019-01-09T19:34:23.943Z,45.50
2019-01-09T19:36:54.463Z,45.73
2019-01-09T19:39:25.057Z,88.17
2019-01-09T19:41:55.541Z,62.30
2019-01-09T19:44:26.067Z,48.23
2019-01-09T19:46:56.550Z,46.67
2019-01-09T19:49:27.140Z,44.07
2019-01-09T19:51:57.723Z,45.07
2019-01-09T19:54:28.210Z,46.70
2019-01-09T19:56:58.799Z,47.00
2019-01-09T19:59:29.289Z,44.60
2019-01-09T20:01:59.863Z,47.27
2019-01-09T20:04:30.423Z,48.37
2019-01-09T20:07:00.936Z,47.57
2019-01-09T20:09:31.967Z,46.97
2019-01-09T20:12:02.636Z,49.10
2019-01-09T20:14:33.214Z,51.30
2019-01-09T20:17:03.689Z,51.27
2019-01-09T20:19:34.285Z,50.00
2019-01-09T20:22:05.144Z,53.60
2019-01-09T20:24:35.771Z,49.93
2019-01-09T20:27:06.412Z,55.07
2019-01-09T20:29:36.900Z,52.97
2019-01-09T20:32:07.512Z,51.83
2019-01-09T20:34:38.001Z,52.30
2019-01-09T20:37:10.063Z,47.57
2019-01-09T20:39:40.625Z,50.20
2019-01-09T20:42:11.200Z,47.80
2019-01-09T20:44:41.698Z,49.17
2019-01-09T20:47:12.336Z,49.47
2019-01-09T20:49:42.955Z,48.37
2019-01-09T20:52:13.858Z,51.60
2019-01-09T20:54:44.369Z,49.27
2019-01-09T20:57:16.239Z,48.47
2019-01-09T20:59:47.465Z,44.50
2019-01-09T21:02:17.945Z,48.40
2019-01-09T21:04:48.729Z,44.53
2019-01-09T21:07:19.269Z,45.10
2019-01-09T21:09:49.764Z,103.07
2019-01-09T21:12:20.332Z,54.37
2019-01-09T21:14:50.849Z,66.57
2019-01-09T21:17:21.343Z,50.03
2019-01-09T21:19:51.847Z,44.47
2019-01-09T21:22:22.406Z,48.20
2019-01-09T21:24:52.937Z,45.23
2019-01-09T21:27:23.562Z,47.47
2019-01-09T21:29:54.154Z,46.17
2019-01-09T21:32:24.713Z,45.90
2019-01-09T21:34:55.224Z,43.40
2019-01-09T21:37:25.808Z,42.40
2019-01-09T21:39:56.470Z,42.70
2019-01-09T21:42:27.123Z,42.00
2019-01-09T21:44:57.610Z,42.20
2019-01-09T21:47:28.122Z,41.80
2019-01-09T21:49:58.610Z,44.10
2019-01-09T21:52:29.114Z,42.83
2019-01-09T21:54:59.666Z,44.87
2019-01-09T21:57:30.184Z,41.33
2019-01-09T22:00:00.673Z,43.43
2019-01-09T22:02:32.956Z,41.73
2019-01-09T22:05:03.546Z,43.63
2019-01-09T22:07:34.176Z,44.20
2019-01-09T22:10:11.996Z,46.77
2019-01-09T22:12:42.633Z,44.53
2019-01-09T22:15:15.688Z,47.30
2019-01-09T22:17:46.378Z,46.00
2019-01-09T22:20:18.291Z,48.67
2019-01-09T22:22:48.844Z,44.57
2019-01-09T22:25:19.369Z,47.13
2019-01-09T22:27:49.929Z,45.20
2019-01-09T22:30:26.500Z,45.63
2019-01-09T22:32:57.320Z,45.97
2019-01-09T22:35:27.972Z,43.53
2019-01-09T22:37:58.454Z,43.30
2019-01-09T22:40:29.043Z,43.63
2019-01-09T22:42:59.529Z,43.93
2019-01-09T22:45:30.049Z,42.47
2019-01-09T22:48:00.567Z,44.10
2019-01-09T22:50:31.104Z,43.87
2019-01-09T22:53:01.586Z,45.60
2019-01-09T22:55:32.109Z,43.23
2019-01-09T22:58:02.588Z,39.30
2019-01-09T23:00:50.223Z,42.67
2019-01-09T23:03:20.897Z,49.10
2019-01-09T23:05:51.453Z,58.90
2019-01-09T23:08:22.079Z,73.37
2019-01-09T23:10:55.074Z,54.77
2019-01-09T23:13:24.872Z,43.87
2019-01-09T23:15:55.410Z,41.27
2019-01-09T23:18:25.897Z,41.00
2019-01-09T23:20:56.477Z,42.53
2019-01-09T23:23:27.134Z,43.43
2019-01-09T23:25:57.771Z,42.20
2019-01-09T23:28:28.298Z,40.20
2019-01-09T23:30:58.851Z,41.37
2019-01-09T23:33:29.431Z,42.07
2019-01-09T23:36:00.097Z,40.70
2019-01-09T23:38:30.624Z,42.00
2019-01-09T23:41:01.253Z,39.00
2019-01-09T23:43:31.778Z,39.67
2019-01-09T23:46:02.282Z,41.23
2019-01-09T23:48:32.790Z,41.03
2019-01-09T23:51:03.333Z,40.33
2019-01-09T23:53:33.819Z,37.60
2019-01-09T23:56:04.567Z,39.90
2019-01-09T23:58:35.097Z,35.67
